sensor_id;sensor_type;location;lat;lon;timestamp;P1;P2;P0
36453;PMS5003;22478;51.740;-1.314;2023-06-22T00:00:49;8;6;
36453;PMS5003;22478;51.740;-1.314;2023-06-22T00:03:17;9;8;
36453;PMS5003;22478;51.740;-1.314;2023-06-22T00:05:46;7;7;
36453;PMS5003;22478;51.740;-1.314;2023-06-22T00:08:14;10;7;
36453;PMS5003;22478;51.740;-1.314;2023-06-22T00:10:43;6;6;
36453;PMS5003;22478;51.740;-1.314;2023-06-22T00:13:11;7;6;
36453;PMS5003;22478;51.740;-1.314;2023-06-22T00:15:40;6;6;
36453;PMS5003;22478;51.740;-1.314;2023-06-22T00:18:08;4;4;
36453;PMS5003;22478;51.740;-1.314;2023-06-22T00:20:36;8;6;
36453;PMS5003;22478;51.740;-1.314;2023-06-22T00:23:04;6;6;
36453;PMS5003;22478;51.740;-1.314;2023-06-22T00:25:33;7;7;
36453;PMS5003;22478;51.740;-1.314;2023-06-22T00:28:00;8;8;
36453;PMS5003;22478;51.740;-1.314;2023-06-22T00:30:28;4;4;
36453;PMS5003;22478;51.740;-1.314;2023-06-22T00:32:55;6;6;
36453;PMS5003;22478;51.740;-1.314;2023-06-22T00:35:22;9;5;
36453;PMS5003;22478;51.740;-1.314;2023-06-22T00:37:49;8;7;
36453;PMS5003;22478;51.740;-1.314;2023-06-22T00:40:16;8;7;
36453;PMS5003;22478;51.740;-1.314;2023-06-22T00:42:43;5;5;
36453;PMS5003;22478;51.740;-1.314;2023-06-22T00:45:10;8;7;
36453;PMS5003;22478;51.740;-1.314;2023-06-22T00:47:37;8;6;
36453;PMS5003;22478;51.740;-1.314;2023-06-22T00:50:05;8;6;
36453;PMS5003;22478;51.740;-1.314;2023-06-22T00:52:34;9;7;
36453;PMS5003;22478;51.740;-1.314;2023-06-22T00:55:02;8;8;
36453;PMS5003;22478;51.740;-1.314;2023-06-22T00:57:30;6;6;
36453;PMS5003;22478;51.740;-1.314;2023-06-22T00:59:58;10;7;
36453;PMS5003;22478;51.740;-1.314;2023-06-22T01:02:25;9;8;
36453;PMS5003;22478;51.740;-1.314;2023-06-22T01:04:53;10;7;
36453;PMS5003;22478;51.740;-1.314;2023-06-22T01:07:22;8;8;
36453;PMS5003;22478;51.740;-1.314;2023-06-22T01:09:57;8;6;
36453;PMS5003;22478;51.740;-1.314;2023-06-22T01:12:30;10;8;
36453;PMS5003;22478;51.740;-1.314;2023-06-22T01:15:03;8;8;
36453;PMS5003;22478;51.740;-1.314;2023-06-22T01:17:35;5;5;
36453;PMS5003;22478;51.740;-1.314;2023-06-22T01:20:07;3;3;
36453;PMS5003;22478;51.740;-1.314;2023-06-22T01:22:39;9;7;
36453;PMS5003;22478;51.740;-1.314;2023-06-22T01:25:18;7;6;
36453;PMS5003;22478;51.740;-1.314;2023-06-22T01:27:49;6;6;
36453;PMS5003;22478;51.740;-1.314;2023-06-22T01:30:22;7;4;
36453;PMS5003;22478;51.740;-1.314;2023-06-22T01:32:53;8;6;
36453;PMS5003;22478;51.740;-1.314;2023-06-22T01:35:21;9;7;
36453;PMS5003;22478;51.740;-1.314;2023-06-22T01:37:50;7;7;
36453;PMS5003;22478;51.740;-1.314;2023-06-22T01:40:18;6;5;
36453;PMS5003;22478;51.740;-1.314;2023-06-22T01:42:48;10;7;
36453;PMS5003;22478;51.740;-1.314;2023-06-22T01:45:16;8;8;
36453;PMS5003;22478;51.740;-1.314;2023-06-22T01:47:45;8;8;
36453;PMS5003;22478;51.740;-1.314;2023-06-22T01:50:13;9;7;
36453;PMS5003;22478;51.740;-1.314;2023-06-22T01:52:40;7;6;
36453;PMS5003;22478;51.740;-1.314;2023-06-22T01:55:08;6;6;
36453;PMS5003;22478;51.740;-1.314;2023-06-22T01:57:35;8;7;
36453;PMS5003;22478;51.740;-1.314;2023-06-22T02:00:02;8;8;
36453;PMS5003;22478;51.740;-1.314;2023-06-22T02:02:32;11;10;
36453;PMS5003;22478;51.740;-1.314;2023-06-22T02:05:05;6;6;
36453;PMS5003;22478;51.740;-1.314;2023-06-22T02:07:36;10;7;
36453;PMS5003;22478;51.740;-1.314;2023-06-22T02:10:09;10;7;
36453;PMS5003;22478;51.740;-1.314;2023-06-22T02:12:38;8;8;
36453;PMS5003;22478;51.740;-1.314;2023-06-22T02:15:07;9;7;
36453;PMS5003;22478;51.740;-1.314;2023-06-22T02:17:36;8;6;
36453;PMS5003;22478;51.740;-1.314;2023-06-22T02:20:04;9;6;
36453;PMS5003;22478;51.740;-1.314;2023-06-22T02:22:33;6;6;
36453;PMS5003;22478;51.740;-1.314;2023-06-22T02:25:00;8;7;
36453;PMS5003;22478;51.740;-1.314;2023-06-22T02:27:27;9;9;
36453;PMS5003;22478;51.740;-1.314;2023-06-22T02:29:54;6;6;
36453;PMS5003;22478;51.740;-1.314;2023-06-22T02:32:23;8;8;
36453;PMS5003;22478;51.740;-1.314;2023-06-22T02:34:50;8;7;
36453;PMS5003;22478;51.740;-1.314;2023-06-22T02:37:17;9;8;
36453;PMS5003;22478;51.740;-1.314;2023-06-22T02:39:44;10;9;
36453;PMS5003;22478;51.740;-1.314;2023-06-22T02:42:11;9;7;
36453;PMS5003;22478;51.740;-1.314;2023-06-22T02:44:38;9;6;
36453;PMS5003;22478;51.740;-1.314;2023-06-22T02:47:06;12;10;
36453;PMS5003;22478;51.740;-1.314;2023-06-22T02:49:33;9;7;
36453;PMS5003;22478;51.740;-1.314;2023-06-22T02:52:01;8;7;
36453;PMS5003;22478;51.740;-1.314;2023-06-22T02:54:29;7;7;
36453;PMS5003;22478;51.740;-1.314;2023-06-22T02:56:56;7;6;
36453;PMS5003;22478;51.740;-1.314;2023-06-22T02:59:23;10;9;
36453;PMS5003;22478;51.740;-1.314;2023-06-22T03:01:50;9;9;
36453;PMS5003;22478;51.740;-1.314;2023-06-22T03:04:17;8;8;
36453;PMS5003;22478;51.740;-1.314;2023-06-22T03:06:45;11;8;
36453;PMS5003;22478;51.740;-1.314;2023-06-22T03:09:12;7;7;
36453;PMS5003;22478;51.740;-1.314;2023-06-22T03:11:39;8;7;
36453;PMS5003;22478;51.740;-1.314;2023-06-22T03:14:06;11;8;
36453;PMS5003;22478;51.740;-1.314;2023-06-22T03:16:34;5;5;
36453;PMS5003;22478;51.740;-1.314;2023-06-22T03:19:01;9;8;
36453;PMS5003;22478;51.740;-1.314;2023-06-22T03:21:29;9;6;
36453;PMS5003;22478;51.740;-1.314;2023-06-22T03:23:56;9;8;
36453;PMS5003;22478;51.740;-1.314;2023-06-22T03:26:23;10;10;
36453;PMS5003;22478;51.740;-1.314;2023-06-22T03:28:50;10;9;
36453;PMS5003;22478;51.740;-1.314;2023-06-22T03:31:17;12;8;
36453;PMS5003;22478;51.740;-1.314;2023-06-22T03:33:44;9;9;
36453;PMS5003;22478;51.740;-1.314;2023-06-22T03:36:12;9;9;
36453;PMS5003;22478;51.740;-1.314;2023-06-22T03:38:39;12;11;
36453;PMS5003;22478;51.740;-1.314;2023-06-22T03:41:06;12;10;
36453;PMS5003;22478;51.740;-1.314;2023-06-22T03:43:33;10;10;
36453;PMS5003;22478;51.740;-1.314;2023-06-22T03:46:00;5;5;
36453;PMS5003;22478;51.740;-1.314;2023-06-22T03:48:27;11;9;
36453;PMS5003;22478;51.740;-1.314;2023-06-22T03:50:55;16;9;
36453;PMS5003;22478;51.740;-1.314;2023-06-22T03:53:22;10;10;
36453;PMS5003;22478;51.740;-1.314;2023-06-22T03:55:49;13;12;
36453;PMS5003;22478;51.740;-1.314;2023-06-22T03:58:18;12;11;
36453;PMS5003;22478;51.740;-1.314;2023-06-22T04:00:46;9;9;
36453;PMS5003;22478;51.740;-1.314;2023-06-22T04:03:13;16;11;
36453;PMS5003;22478;51.740;-1.314;2023-06-22T04:05:41;10;10;
36453;PMS5003;22478;51.740;-1.314;2023-06-22T04:08:08;14;12;
36453;PMS5003;22478;51.740;-1.314;2023-06-22T04:10:36;17;12;
36453;PMS5003;22478;51.740;-1.314;2023-06-22T04:13:03;11;10;
36453;PMS5003;22478;51.740;-1.314;2023-06-22T04:15:30;13;11;
36453;PMS5003;22478;51.740;-1.314;2023-06-22T04:17:58;13;12;
36453;PMS5003;22478;51.740;-1.314;2023-06-22T04:20:26;16;15;
36453;PMS5003;22478;51.740;-1.314;2023-06-22T04:22:53;17;16;
36453;PMS5003;22478;51.740;-1.314;2023-06-22T04:25:21;12;10;
36453;PMS5003;22478;51.740;-1.314;2023-06-22T04:27:48;12;9;
36453;PMS5003;22478;51.740;-1.314;2023-06-22T04:30:16;17;15;
36453;PMS5003;22478;51.740;-1.314;2023-06-22T04:32:43;14;10;
36453;PMS5003;22478;51.740;-1.314;2023-06-22T04:35:11;19;16;
36453;PMS5003;22478;51.740;-1.314;2023-06-22T04:37:38;16;12;
36453;PMS5003;22478;51.740;-1.314;2023-06-22T04:40:06;14;12;
36453;PMS5003;22478;51.740;-1.314;2023-06-22T04:42:34;9;8;
36453;PMS5003;22478;51.740;-1.314;2023-06-22T04:45:02;13;12;
36453;PMS5003;22478;51.740;-1.314;2023-06-22T04:47:29;19;12;
36453;PMS5003;22478;51.740;-1.314;2023-06-22T04:49:56;11;11;
36453;PMS5003;22478;51.740;-1.314;2023-06-22T04:52:23;11;9;
36453;PMS5003;22478;51.740;-1.314;2023-06-22T04:54:51;17;15;
36453;PMS5003;22478;51.740;-1.314;2023-06-22T04:57:18;17;14;
36453;PMS5003;22478;51.740;-1.314;2023-06-22T04:59:46;19;15;
36453;PMS5003;22478;51.740;-1.314;2023-06-22T05:02:13;17;13;
36453;PMS5003;22478;51.740;-1.314;2023-06-22T05:04:40;13;10;
36453;PMS5003;22478;51.740;-1.314;2023-06-22T05:07:07;13;12;
36453;PMS5003;22478;51.740;-1.314;2023-06-22T05:09:35;17;15;
36453;PMS5003;22478;51.740;-1.314;2023-06-22T05:12:02;17;14;
36453;PMS5003;22478;51.740;-1.314;2023-06-22T05:14:29;18;15;
36453;PMS5003;22478;51.740;-1.314;2023-06-22T05:16:56;11;9;
36453;PMS5003;22478;51.740;-1.314;2023-06-22T05:19:24;17;14;
36453;PMS5003;22478;51.740;-1.314;2023-06-22T05:21:51;20;14;
36453;PMS5003;22478;51.740;-1.314;2023-06-22T05:24:18;13;10;
36453;PMS5003;22478;51.740;-1.314;2023-06-22T05:26:50;15;12;
36453;PMS5003;22478;51.740;-1.314;2023-06-22T05:29:17;15;14;
36453;PMS5003;22478;51.740;-1.314;2023-06-22T05:31:44;15;15;
36453;PMS5003;22478;51.740;-1.314;2023-06-22T05:34:11;20;16;
36453;PMS5003;22478;51.740;-1.314;2023-06-22T05:36:38;17;16;
36453;PMS5003;22478;51.740;-1.314;2023-06-22T05:39:10;15;11;
36453;PMS5003;22478;51.740;-1.314;2023-06-22T05:41:44;20;15;
36453;PMS5003;22478;51.740;-1.314;2023-06-22T05:44:12;12;12;
36453;PMS5003;22478;51.740;-1.314;2023-06-22T05:46:40;16;12;
36453;PMS5003;22478;51.740;-1.314;2023-06-22T05:49:07;17;13;
36453;PMS5003;22478;51.740;-1.314;2023-06-22T05:51:34;16;12;
36453;PMS5003;22478;51.740;-1.314;2023-06-22T05:54:01;18;13;
36453;PMS5003;22478;51.740;-1.314;2023-06-22T05:56:29;19;18;
36453;PMS5003;22478;51.740;-1.314;2023-06-22T05:58:56;17;14;
36453;PMS5003;22478;51.740;-1.314;2023-06-22T06:01:24;20;16;
36453;PMS5003;22478;51.740;-1.314;2023-06-22T06:03:51;17;11;
36453;PMS5003;22478;51.740;-1.314;2023-06-22T06:06:18;16;14;
36453;PMS5003;22478;51.740;-1.314;2023-06-22T06:08:51;17;14;
36453;PMS5003;22478;51.740;-1.314;2023-06-22T06:11:18;13;11;
36453;PMS5003;22478;51.740;-1.314;2023-06-22T06:13:45;13;13;
36453;PMS5003;22478;51.740;-1.314;2023-06-22T06:16:12;20;14;
36453;PMS5003;22478;51.740;-1.314;2023-06-22T06:18:39;16;14;
36453;PMS5003;22478;51.740;-1.314;2023-06-22T06:21:07;14;12;
36453;PMS5003;22478;51.740;-1.314;2023-06-22T06:23:39;15;10;
36453;PMS5003;22478;51.740;-1.314;2023-06-22T06:26:07;15;14;
36453;PMS5003;22478;51.740;-1.314;2023-06-22T06:28:34;12;12;
36453;PMS5003;22478;51.740;-1.314;2023-06-22T06:31:02;17;14;
36453;PMS5003;22478;51.740;-1.314;2023-06-22T06:33:29;22;16;
36453;PMS5003;22478;51.740;-1.314;2023-06-22T06:35:56;16;11;
36453;PMS5003;22478;51.740;-1.314;2023-06-22T06:38:23;14;12;
36453;PMS5003;22478;51.740;-1.314;2023-06-22T06:40:50;15;13;
36453;PMS5003;22478;51.740;-1.314;2023-06-22T06:43:18;14;13;
36453;PMS5003;22478;51.740;-1.314;2023-06-22T06:45:45;16;13;
36453;PMS5003;22478;51.740;-1.314;2023-06-22T06:48:12;19;14;
36453;PMS5003;22478;51.740;-1.314;2023-06-22T06:50:39;14;9;
36453;PMS5003;22478;51.740;-1.314;2023-06-22T06:53:06;19;17;
36453;PMS5003;22478;51.740;-1.314;2023-06-22T06:55:33;13;9;
36453;PMS5003;22478;51.740;-1.314;2023-06-22T06:58:01;19;14;
36453;PMS5003;22478;51.740;-1.314;2023-06-22T07:00:34;14;13;
36453;PMS5003;22478;51.740;-1.314;2023-06-22T07:03:01;18;14;
36453;PMS5003;22478;51.740;-1.314;2023-06-22T07:05:28;23;17;
36453;PMS5003;22478;51.740;-1.314;2023-06-22T07:07:56;13;12;
36453;PMS5003;22478;51.740;-1.314;2023-06-22T07:10:23;15;13;
36453;PMS5003;22478;51.740;-1.314;2023-06-22T07:12:50;17;14;
36453;PMS5003;22478;51.740;-1.314;2023-06-22T07:15:22;16;14;
36453;PMS5003;22478;51.740;-1.314;2023-06-22T07:17:50;24;15;
36453;PMS5003;22478;51.740;-1.314;2023-06-22T07:20:17;18;14;
36453;PMS5003;22478;51.740;-1.314;2023-06-22T07:22:44;13;13;
36453;PMS5003;22478;51.740;-1.314;2023-06-22T07:25:12;18;16;
36453;PMS5003;22478;51.740;-1.314;2023-06-22T07:27:43;19;13;
36453;PMS5003;22478;51.740;-1.314;2023-06-22T07:30:12;14;13;
36453;PMS5003;22478;51.740;-1.314;2023-06-22T07:32:44;17;14;
36453;PMS5003;22478;51.740;-1.314;2023-06-22T07:35:11;14;12;
36453;PMS5003;22478;51.740;-1.314;2023-06-22T07:37:38;15;13;
36453;PMS5003;22478;51.740;-1.314;2023-06-22T07:40:06;9;9;
36453;PMS5003;22478;51.740;-1.314;2023-06-22T07:42:34;14;11;
36453;PMS5003;22478;51.740;-1.314;2023-06-22T07:45:02;16;14;
36453;PMS5003;22478;51.740;-1.314;2023-06-22T07:47:30;13;11;
36453;PMS5003;22478;51.740;-1.314;2023-06-22T07:49:58;13;10;
36453;PMS5003;22478;51.740;-1.314;2023-06-22T07:52:26;15;13;
36453;PMS5003;22478;51.740;-1.314;2023-06-22T07:54:53;15;13;
36453;PMS5003;22478;51.740;-1.314;2023-06-22T07:57:21;16;14;
36453;PMS5003;22478;51.740;-1.314;2023-06-22T07:59:48;11;9;
36453;PMS5003;22478;51.740;-1.314;2023-06-22T08:02:15;12;10;
36453;PMS5003;22478;51.740;-1.314;2023-06-22T08:04:41;9;9;
36453;PMS5003;22478;51.740;-1.314;2023-06-22T08:07:08;11;10;
36453;PMS5003;22478;51.740;-1.314;2023-06-22T08:09:36;11;11;
36453;PMS5003;22478;51.740;-1.314;2023-06-22T08:12:03;10;7;
36453;PMS5003;22478;51.740;-1.314;2023-06-22T08:14:31;15;11;
36453;PMS5003;22478;51.740;-1.314;2023-06-22T08:17:04;12;9;
36453;PMS5003;22478;51.740;-1.314;2023-06-22T08:19:31;10;7;
36453;PMS5003;22478;51.740;-1.314;2023-06-22T08:21:58;9;9;
36453;PMS5003;22478;51.740;-1.314;2023-06-22T08:24:25;12;9;
36453;PMS5003;22478;51.740;-1.314;2023-06-22T08:26:52;11;8;
36453;PMS5003;22478;51.740;-1.314;2023-06-22T08:29:19;9;8;
36453;PMS5003;22478;51.740;-1.314;2023-06-22T08:31:46;8;8;
36453;PMS5003;22478;51.740;-1.314;2023-06-22T08:34:12;9;7;
36453;PMS5003;22478;51.740;-1.314;2023-06-22T08:36:39;6;6;
36453;PMS5003;22478;51.740;-1.314;2023-06-22T08:39:06;9;6;
36453;PMS5003;22478;51.740;-1.314;2023-06-22T08:41:33;8;6;
36453;PMS5003;22478;51.740;-1.314;2023-06-22T08:44:00;8;7;
36453;PMS5003;22478;51.740;-1.314;2023-06-22T08:46:28;7;5;
36453;PMS5003;22478;51.740;-1.314;2023-06-22T08:48:55;6;6;
36453;PMS5003;22478;51.740;-1.314;2023-06-22T08:51:23;7;7;
36453;PMS5003;22478;51.740;-1.314;2023-06-22T08:53:55;8;6;
36453;PMS5003;22478;51.740;-1.314;2023-06-22T08:56:22;9;6;
36453;PMS5003;22478;51.740;-1.314;2023-06-22T08:58:49;6;5;
36453;PMS5003;22478;51.740;-1.314;2023-06-22T09:01:16;5;5;
36453;PMS5003;22478;51.740;-1.314;2023-06-22T09:03:44;6;6;
36453;PMS5003;22478;51.740;-1.314;2023-06-22T09:06:12;7;7;
36453;PMS5003;22478;51.740;-1.314;2023-06-22T09:08:39;8;8;
36453;PMS5003;22478;51.740;-1.314;2023-06-22T09:11:07;6;6;
36453;PMS5003;22478;51.740;-1.314;2023-06-22T09:13:39;7;5;
36453;PMS5003;22478;51.740;-1.314;2023-06-22T09:16:07;6;6;
36453;PMS5003;22478;51.740;-1.314;2023-06-22T09:18:34;5;5;
36453;PMS5003;22478;51.740;-1.314;2023-06-22T09:21:02;6;6;
36453;PMS5003;22478;51.740;-1.314;2023-06-22T09:23:29;7;6;
36453;PMS5003;22478;51.740;-1.314;2023-06-22T09:25:57;5;4;
36453;PMS5003;22478;51.740;-1.314;2023-06-22T09:28:24;5;5;
36453;PMS5003;22478;51.740;-1.314;2023-06-22T09:30:52;6;5;
36453;PMS5003;22478;51.740;-1.314;2023-06-22T09:33:20;6;4;
36453;PMS5003;22478;51.740;-1.314;2023-06-22T09:35:47;7;5;
36453;PMS5003;22478;51.740;-1.314;2023-06-22T09:38:15;9;8;
36453;PMS5003;22478;51.740;-1.314;2023-06-22T09:40:42;8;8;
36453;PMS5003;22478;51.740;-1.314;2023-06-22T09:43:10;4;4;
36453;PMS5003;22478;51.740;-1.314;2023-06-22T09:45:37;6;4;
36453;PMS5003;22478;51.740;-1.314;2023-06-22T09:48:05;6;6;
36453;PMS5003;22478;51.740;-1.314;2023-06-22T09:50:33;5;5;
36453;PMS5003;22478;51.740;-1.314;2023-06-22T09:53:00;6;5;
36453;PMS5003;22478;51.740;-1.314;2023-06-22T09:55:28;4;4;
36453;PMS5003;22478;51.740;-1.314;2023-06-22T09:57:55;6;4;
36453;PMS5003;22478;51.740;-1.314;2023-06-22T10:00:23;5;4;
36453;PMS5003;22478;51.740;-1.314;2023-06-22T10:02:51;5;5;
36453;PMS5003;22478;51.740;-1.314;2023-06-22T10:05:18;4;4;
36453;PMS5003;22478;51.740;-1.314;2023-06-22T10:07:46;8;7;
36453;PMS5003;22478;51.740;-1.314;2023-06-22T10:10:13;4;4;
36453;PMS5003;22478;51.740;-1.314;2023-06-22T10:12:41;6;6;
36453;PMS5003;22478;51.740;-1.314;2023-06-22T10:15:09;5;5;
36453;PMS5003;22478;51.740;-1.314;2023-06-22T10:17:37;5;4;
36453;PMS5003;22478;51.740;-1.314;2023-06-22T10:20:05;5;4;
36453;PMS5003;22478;51.740;-1.314;2023-06-22T10:22:34;5;5;
36453;PMS5003;22478;51.740;-1.314;2023-06-22T10:25:01;7;5;
36453;PMS5003;22478;51.740;-1.314;2023-06-22T10:27:28;6;6;
36453;PMS5003;22478;51.740;-1.314;2023-06-22T10:29:56;6;4;
36453;PMS5003;22478;51.740;-1.314;2023-06-22T10:32:23;7;7;
36453;PMS5003;22478;51.740;-1.314;2023-06-22T10:34:51;5;4;
36453;PMS5003;22478;51.740;-1.314;2023-06-22T10:37:18;5;5;
36453;PMS5003;22478;51.740;-1.314;2023-06-22T10:39:46;7;5;
36453;PMS5003;22478;51.740;-1.314;2023-06-22T10:42:14;5;5;
36453;PMS5003;22478;51.740;-1.314;2023-06-22T10:44:41;9;7;
36453;PMS5003;22478;51.740;-1.314;2023-06-22T10:47:09;6;4;
36453;PMS5003;22478;51.740;-1.314;2023-06-22T10:49:36;6;4;
36453;PMS5003;22478;51.740;-1.314;2023-06-22T10:52:04;4;4;
36453;PMS5003;22478;51.740;-1.314;2023-06-22T10:54:32;8;7;
36453;PMS5003;22478;51.740;-1.314;2023-06-22T10:57:00;5;5;
36453;PMS5003;22478;51.740;-1.314;2023-06-22T10:59:28;7;6;
36453;PMS5003;22478;51.740;-1.314;2023-06-22T11:01:56;3;3;
36453;PMS5003;22478;51.740;-1.314;2023-06-22T11:04:23;5;5;
36453;PMS5003;22478;51.740;-1.314;2023-06-22T11:06:51;8;5;
36453;PMS5003;22478;51.740;-1.314;2023-06-22T11:09:18;5;3;
36453;PMS5003;22478;51.740;-1.314;2023-06-22T11:11:46;5;5;
36453;PMS5003;22478;51.740;-1.314;2023-06-22T11:14:13;5;4;
36453;PMS5003;22478;51.740;-1.314;2023-06-22T11:16:41;4;4;
36453;PMS5003;22478;51.740;-1.314;2023-06-22T11:19:08;3;2;
36453;PMS5003;22478;51.740;-1.314;2023-06-22T11:21:36;4;4;
36453;PMS5003;22478;51.740;-1.314;2023-06-22T11:24:04;6;6;
36453;PMS5003;22478;51.740;-1.314;2023-06-22T11:26:31;6;4;
36453;PMS5003;22478;51.740;-1.314;2023-06-22T11:28:58;7;6;
36453;PMS5003;22478;51.740;-1.314;2023-06-22T11:31:26;5;5;
36453;PMS5003;22478;51.740;-1.314;2023-06-22T11:33:54;6;5;
36453;PMS5003;22478;51.740;-1.314;2023-06-22T11:36:21;6;5;
36453;PMS5003;22478;51.740;-1.314;2023-06-22T11:38:49;6;6;
36453;PMS5003;22478;51.740;-1.314;2023-06-22T11:41:16;5;5;
36453;PMS5003;22478;51.740;-1.314;2023-06-22T11:43:44;6;6;
36453;PMS5003;22478;51.740;-1.314;2023-06-22T11:46:12;6;6;
36453;PMS5003;22478;51.740;-1.314;2023-06-22T11:48:39;5;5;
36453;PMS5003;22478;51.740;-1.314;2023-06-22T11:51:07;7;7;
36453;PMS5003;22478;51.740;-1.314;2023-06-22T11:53:34;3;3;
36453;PMS5003;22478;51.740;-1.314;2023-06-22T11:56:02;3;3;
36453;PMS5003;22478;51.740;-1.314;2023-06-22T11:58:29;5;4;
36453;PMS5003;22478;51.740;-1.314;2023-06-22T12:00:57;5;5;
36453;PMS5003;22478;51.740;-1.314;2023-06-22T12:03:24;8;6;
36453;PMS5003;22478;51.740;-1.314;2023-06-22T12:05:52;6;5;
36453;PMS5003;22478;51.740;-1.314;2023-06-22T12:08:20;5;5;
36453;PMS5003;22478;51.740;-1.314;2023-06-22T12:10:48;5;5;
36453;PMS5003;22478;51.740;-1.314;2023-06-22T12:13:15;4;4;
36453;PMS5003;22478;51.740;-1.314;2023-06-22T12:15:43;5;5;
36453;PMS5003;22478;51.740;-1.314;2023-06-22T12:18:11;6;6;
36453;PMS5003;22478;51.740;-1.314;2023-06-22T12:20:38;5;5;
36453;PMS5003;22478;51.740;-1.314;2023-06-22T12:23:06;5;5;
36453;PMS5003;22478;51.740;-1.314;2023-06-22T12:25:33;5;5;
36453;PMS5003;22478;51.740;-1.314;2023-06-22T12:28:06;6;5;
36453;PMS5003;22478;51.740;-1.314;2023-06-22T12:30:33;7;7;
36453;PMS5003;22478;51.740;-1.314;2023-06-22T12:33:00;6;4;
36453;PMS5003;22478;51.740;-1.314;2023-06-22T12:35:28;6;5;
36453;PMS5003;22478;51.740;-1.314;2023-06-22T12:37:56;5;5;
36453;PMS5003;22478;51.740;-1.314;2023-06-22T12:40:23;5;5;
36453;PMS5003;22478;51.740;-1.314;2023-06-22T12:42:56;4;4;
36453;PMS5003;22478;51.740;-1.314;2023-06-22T12:45:22;6;4;
36453;PMS5003;22478;51.740;-1.314;2023-06-22T12:47:54;5;3;
36453;PMS5003;22478;51.740;-1.314;2023-06-22T12:50:21;6;5;
36453;PMS5003;22478;51.740;-1.314;2023-06-22T12:52:49;4;4;
36453;PMS5003;22478;51.740;-1.314;2023-06-22T12:55:16;6;5;
36453;PMS5003;22478;51.740;-1.314;2023-06-22T12:57:44;5;5;
36453;PMS5003;22478;51.740;-1.314;2023-06-22T13:00:12;3;3;
36453;PMS5003;22478;51.740;-1.314;2023-06-22T13:02:45;3;3;
36453;PMS5003;22478;51.740;-1.314;2023-06-22T13:05:12;6;6;
36453;PMS5003;22478;51.740;-1.314;2023-06-22T13:07:40;4;4;
36453;PMS5003;22478;51.740;-1.314;2023-06-22T13:10:12;4;3;
36453;PMS5003;22478;51.740;-1.314;2023-06-22T13:12:39;4;4;
36453;PMS5003;22478;51.740;-1.314;2023-06-22T13:15:07;4;4;
36453;PMS5003;22478;51.740;-1.314;2023-06-22T13:17:34;4;4;
36453;PMS5003;22478;51.740;-1.314;2023-06-22T13:20:02;5;5;
36453;PMS5003;22478;51.740;-1.314;2023-06-22T13:22:30;3;3;
36453;PMS5003;22478;51.740;-1.314;2023-06-22T13:25:04;4;4;
36453;PMS5003;22478;51.740;-1.314;2023-06-22T13:27:32;3;3;
36453;PMS5003;22478;51.740;-1.314;2023-06-22T13:30:00;4;4;
36453;PMS5003;22478;51.740;-1.314;2023-06-22T13:32:27;4;3;
36453;PMS5003;22478;51.740;-1.314;2023-06-22T13:34:55;5;3;
36453;PMS5003;22478;51.740;-1.314;2023-06-22T13:37:22;2;2;
36453;PMS5003;22478;51.740;-1.314;2023-06-22T13:39:50;3;3;
36453;PMS5003;22478;51.740;-1.314;2023-06-22T13:42:17;5;5;
36453;PMS5003;22478;51.740;-1.314;2023-06-22T13:44:45;6;6;
36453;PMS5003;22478;51.740;-1.314;2023-06-22T13:47:13;4;4;
36453;PMS5003;22478;51.740;-1.314;2023-06-22T13:49:40;4;4;
36453;PMS5003;22478;51.740;-1.314;2023-06-22T13:52:08;4;4;
36453;PMS5003;22478;51.740;-1.314;2023-06-22T13:54:35;4;4;
36453;PMS5003;22478;51.740;-1.314;2023-06-22T13:57:03;4;4;
36453;PMS5003;22478;51.740;-1.314;2023-06-22T13:59:30;6;5;
36453;PMS5003;22478;51.740;-1.314;2023-06-22T14:01:58;6;5;
36453;PMS5003;22478;51.740;-1.314;2023-06-22T14:04:26;4;3;
36453;PMS5003;22478;51.740;-1.314;2023-06-22T14:06:53;5;5;
36453;PMS5003;22478;51.740;-1.314;2023-06-22T14:09:25;4;3;
36453;PMS5003;22478;51.740;-1.314;2023-06-22T14:11:53;4;3;
36453;PMS5003;22478;51.740;-1.314;2023-06-22T14:14:21;4;4;
36453;PMS5003;22478;51.740;-1.314;2023-06-22T14:16:48;5;5;
36453;PMS5003;22478;51.740;-1.314;2023-06-22T14:19:16;5;5;
36453;PMS5003;22478;51.740;-1.314;2023-06-22T14:21:44;4;3;
36453;PMS5003;22478;51.740;-1.314;2023-06-22T14:24:15;5;5;
36453;PMS5003;22478;51.740;-1.314;2023-06-22T14:26:43;5;5;
36453;PMS5003;22478;51.740;-1.314;2023-06-22T14:29:11;3;3;
36453;PMS5003;22478;51.740;-1.314;2023-06-22T14:31:38;5;5;
36453;PMS5003;22478;51.740;-1.314;2023-06-22T14:34:06;5;5;
36453;PMS5003;22478;51.740;-1.314;2023-06-22T14:36:34;7;5;
36453;PMS5003;22478;51.740;-1.314;2023-06-22T14:39:01;5;5;
36453;PMS5003;22478;51.740;-1.314;2023-06-22T14:41:29;7;6;
36453;PMS5003;22478;51.740;-1.314;2023-06-22T14:43:57;5;4;
36453;PMS5003;22478;51.740;-1.314;2023-06-22T14:46:24;3;3;
36453;PMS5003;22478;51.740;-1.314;2023-06-22T14:48:57;6;6;
36453;PMS5003;22478;51.740;-1.314;2023-06-22T14:51:25;4;4;
36453;PMS5003;22478;51.740;-1.314;2023-06-22T14:53:51;3;3;
36453;PMS5003;22478;51.740;-1.314;2023-06-22T14:56:19;5;4;
36453;PMS5003;22478;51.740;-1.314;2023-06-22T14:58:47;5;5;
36453;PMS5003;22478;51.740;-1.314;2023-06-22T15:01:15;7;5;
36453;PMS5003;22478;51.740;-1.314;2023-06-22T15:03:44;5;5;
36453;PMS5003;22478;51.740;-1.314;2023-06-22T15:06:11;4;4;
36453;PMS5003;22478;51.740;-1.314;2023-06-22T15:08:38;5;4;
36453;PMS5003;22478;51.740;-1.314;2023-06-22T15:11:11;9;5;
36453;PMS5003;22478;51.740;-1.314;2023-06-22T15:13:38;4;4;
36453;PMS5003;22478;51.740;-1.314;2023-06-22T15:16:06;4;4;
36453;PMS5003;22478;51.740;-1.314;2023-06-22T15:18:34;5;5;
36453;PMS5003;22478;51.740;-1.314;2023-06-22T15:21:03;4;4;
36453;PMS5003;22478;51.740;-1.314;2023-06-22T15:23:36;7;5;
36453;PMS5003;22478;51.740;-1.314;2023-06-22T15:26:03;6;5;
36453;PMS5003;22478;51.740;-1.314;2023-06-22T15:28:30;7;5;
36453;PMS5003;22478;51.740;-1.314;2023-06-22T15:30:57;5;5;
36453;PMS5003;22478;51.740;-1.314;2023-06-22T15:33:25;6;6;
36453;PMS5003;22478;51.740;-1.314;2023-06-22T15:35:53;6;5;
36453;PMS5003;22478;51.740;-1.314;2023-06-22T15:38:20;7;7;
36453;PMS5003;22478;51.740;-1.314;2023-06-22T15:40:53;6;5;
36453;PMS5003;22478;51.740;-1.314;2023-06-22T15:43:20;9;7;
36453;PMS5003;22478;51.740;-1.314;2023-06-22T15:45:48;7;6;
36453;PMS5003;22478;51.740;-1.314;2023-06-22T15:48:15;5;5;
36453;PMS5003;22478;51.740;-1.314;2023-06-22T15:50:43;8;6;
36453;PMS5003;22478;51.740;-1.314;2023-06-22T15:53:10;4;4;
36453;PMS5003;22478;51.740;-1.314;2023-06-22T15:55:38;4;4;
36453;PMS5003;22478;51.740;-1.314;2023-06-22T15:58:05;5;5;
36453;PMS5003;22478;51.740;-1.314;2023-06-22T16:00:33;5;4;
36453;PMS5003;22478;51.740;-1.314;2023-06-22T16:03:00;5;5;
36453;PMS5003;22478;51.740;-1.314;2023-06-22T16:05:27;5;5;
36453;PMS5003;22478;51.740;-1.314;2023-06-22T16:07:55;4;4;
36453;PMS5003;22478;51.740;-1.314;2023-06-22T16:10:22;5;5;
36453;PMS5003;22478;51.740;-1.314;2023-06-22T16:12:50;6;6;
36453;PMS5003;22478;51.740;-1.314;2023-06-22T16:15:18;6;4;
36453;PMS5003;22478;51.740;-1.314;2023-06-22T16:17:44;6;5;
36453;PMS5003;22478;51.740;-1.314;2023-06-22T16:20:11;6;4;
36453;PMS5003;22478;51.740;-1.314;2023-06-22T16:22:39;5;5;
36453;PMS5003;22478;51.740;-1.314;2023-06-22T16:25:06;6;5;
36453;PMS5003;22478;51.740;-1.314;2023-06-22T16:27:33;5;5;